Time;durP1;ratioP1;P1;durP2;ratioP2;P2;SDS_P1;SDS_P2;PMS_P1;PMS_P2;Temp;Humidity;BMP_temperature;BMP_pressure;BME280_temperature;BME280_humidity;BME280_pressure;Samples;Min_cycle;Max_cycle;Signal;HPM_P1;HPM_P2
2022/03/17 00:01:01;;;;;;;2.85;2.20;;;;;;;;;;4213388;28;20472;-37
2022/03/17 00:03:02;;;;;;;5.20;2.58;;;;;;;;;;4212962;28;20101;-37
2022/03/17 00:05:04;;;;;;;2.67;1.92;;;;;;;;;;4212349;28;20048;-37
2022/03/17 00:07:05;;;;;;;2.70;2.30;;;;;;;;;;4212169;28;20101;-37
2022/03/17 00:09:07;;;;;;;2.33;2.13;;;;;;;;;;4211986;28;20052;-37
2022/03/17 00:11:07;;;;;;;3.50;2.60;;;;;;;;;;4213104;28;20059;-37
2022/03/17 00:13:08;;;;;;;2.13;1.92;;;;;;;;;;4205725;28;20063;-37
2022/03/17 00:15:09;;;;;;;2.40;2.03;;;;;;;;;;4196953;28;20051;-37
2022/03/17 00:17:11;;;;;;;2.53;2.10;;;;;;;;;;4196057;28;20056;-37
2022/03/17 00:19:12;;;;;;;3.00;2.13;;;;;;;;;;4196686;28;20056;-37
2022/03/17 00:21:13;;;;;;;2.55;2.17;;;;;;;;;;4212010;28;20452;-37
2022/03/17 00:23:14;;;;;;;3.03;2.55;;;;;;;;;;4212822;28;20050;-36
2022/03/17 00:25:15;;;;;;;2.50;2.22;;;;;;;;;;4212979;28;20132;-37
2022/03/17 00:27:16;;;;;;;2.70;2.00;;;;;;;;;;4212293;28;20097;-37
2022/03/17 00:29:19;;;;;;;2.83;2.10;;;;;;;;;;4212842;28;20059;-37
2022/03/17 00:31:20;;;;;;;2.47;2.22;;;;;;;;;;4213246;28;20048;-37
2022/03/17 00:33:21;;;;;;;3.08;2.08;;;;;;;;;;4212709;28;20052;-37
2022/03/17 00:35:38;;;;;;;2.63;2.10;;;;;;;;;;4213246;28;20086;-36
2022/03/17 00:37:39;;;;;;;2.83;2.10;;;;;;;;;;4212956;28;20048;-36
2022/03/17 00:39:41;;;;;;;2.22;1.83;;;;;;;;;;4212526;28;20429;-37
2022/03/17 00:41:42;;;;;;;2.45;2.00;;;;;;;;;;4196211;28;20094;-36
2022/03/17 00:43:43;;;;;;;2.15;1.95;;;;;;;;;;4194924;28;20145;-36
2022/03/17 00:45:47;;;;;;;2.65;2.05;;;;;;;;;;4196314;28;20044;-37
2022/03/17 00:47:48;;;;;;;2.55;2.28;;;;;;;;;;4195621;28;20045;-37
2022/03/17 00:49:49;;;;;;;2.45;1.90;;;;;;;;;;4196065;28;20044;-36
2022/03/17 00:51:50;;;;;;;2.00;1.73;;;;;;;;;;4195926;28;20186;-36
2022/03/17 00:53:51;;;;;;;1.88;1.73;;;;;;;;;;4197620;28;20049;-36
2022/03/17 00:55:52;;;;;;;2.83;2.05;;;;;;;;;;4212341;28;20100;-36
2022/03/17 00:57:53;;;;;;;2.72;2.00;;;;;;;;;;4212534;28;20058;-36
2022/03/17 00:59:55;;;;;;;2.00;1.80;;;;;;;;;;4212778;28;20052;-37
2022/03/17 01:01:55;;;;;;;2.10;1.77;;;;;;;;;;4212405;28;20051;-36
2022/03/17 01:03:56;;;;;;;2.60;2.08;;;;;;;;;;4212728;28;20128;-36
2022/03/17 01:05:59;;;;;;;2.20;2.00;;;;;;;;;;4212678;28;20079;-36
2022/03/17 01:08:00;;;;;;;2.47;2.28;;;;;;;;;;4211861;28;20105;-36
2022/03/17 01:10:01;;;;;;;2.25;2.03;;;;;;;;;;4212579;28;20088;-36
2022/03/17 01:12:02;;;;;;;2.58;2.10;;;;;;;;;;4211350;28;20056;-36
2022/03/17 01:14:03;;;;;;;1.95;1.65;;;;;;;;;;4212567;28;20044;-36
2022/03/17 01:16:04;;;;;;;2.83;2.25;;;;;;;;;;4199188;28;20055;-36
2022/03/17 01:18:05;;;;;;;2.15;1.92;;;;;;;;;;4195607;28;20481;-36
2022/03/17 01:20:07;;;;;;;2.88;2.13;;;;;;;;;;4199021;28;20106;-37
2022/03/17 01:22:08;;;;;;;2.47;2.00;;;;;;;;;;4210500;28;20503;-37
2022/03/17 01:24:09;;;;;;;2.10;1.90;;;;;;;;;;4214610;28;20089;-37
2022/03/17 01:26:10;;;;;;;2.95;2.53;;;;;;;;;;4214491;28;20056;-37
2022/03/17 01:28:11;;;;;;;2.30;2.10;;;;;;;;;;4215798;28;20517;-37
2022/03/17 01:30:12;;;;;;;2.78;2.25;;;;;;;;;;4215808;28;20427;-37
2022/03/17 01:32:13;;;;;;;2.50;1.80;;;;;;;;;;4215352;28;20499;-37
2022/03/17 01:34:16;;;;;;;4.55;2.28;;;;;;;;;;4215581;28;20056;-37
2022/03/17 01:36:17;;;;;;;2.72;2.50;;;;;;;;;;4201683;28;20044;-37
2022/03/17 01:38:18;;;;;;;2.15;1.80;;;;;;;;;;4214765;28;20181;-37
2022/03/17 01:40:19;;;;;;;2.30;2.00;;;;;;;;;;4215525;28;20062;-37
2022/03/17 01:42:19;;;;;;;2.25;2.05;;;;;;;;;;4211021;28;20051;-37
2022/03/17 01:44:20;;;;;;;2.42;1.80;;;;;;;;;;4198754;28;20051;-37
2022/03/17 01:46:21;;;;;;;2.08;1.88;;;;;;;;;;4198973;28;20087;-38
2022/03/17 01:48:22;;;;;;;2.88;2.08;;;;;;;;;;4198224;28;20090;-37
2022/03/17 01:50:23;;;;;;;2.42;2.00;;;;;;;;;;4214642;28;20094;-37
2022/03/17 01:52:24;;;;;;;2.40;2.05;;;;;;;;;;4214181;28;20120;-37
2022/03/17 01:54:25;;;;;;;2.35;1.90;;;;;;;;;;4215195;28;20481;-37
2022/03/17 01:56:26;;;;;;;2.45;2.05;;;;;;;;;;4215493;28;20097;-37
2022/03/17 01:58:27;;;;;;;2.58;2.38;;;;;;;;;;4215349;28;20092;-37
2022/03/17 02:00:28;;;;;;;2.25;2.05;;;;;;;;;;4215346;28;20052;-37
2022/03/17 02:02:29;;;;;;;2.15;1.85;;;;;;;;;;4211467;28;20045;-37
2022/03/17 02:04:30;;;;;;;2.05;1.85;;;;;;;;;;4198631;28;20090;-37
2022/03/17 02:06:32;;;;;;;2.88;2.30;;;;;;;;;;4198800;28;20098;-37
2022/03/17 02:08:33;;;;;;;2.10;1.90;;;;;;;;;;4198427;28;20055;-38
2022/03/17 02:13:08;;;;;;;1.80;1.65;;;;;;;;;;4204042;28;20048;-37
2022/03/17 02:13:09;;;;;;;1.98;1.70;;;;;;;;;;4215201;28;20097;-37
2022/03/17 02:15:11;;;;;;;1.75;1.65;;;;;;;;;;4212894;28;20056;-37
2022/03/17 02:17:12;;;;;;;2.17;1.98;;;;;;;;;;4197720;28;20105;-37
2022/03/17 02:19:13;;;;;;;2.15;1.95;;;;;;;;;;4198128;28;20056;-37
2022/03/17 02:21:14;;;;;;;2.13;1.65;;;;;;;;;;4198163;28;20484;-37
2022/03/17 02:25:34;;;;;;;2.10;1.90;;;;;;;;;;4198157;28;20451;-37
2022/03/17 02:27:41;;;;;;;3.38;1.90;;;;;;;;;;4202450;28;20092;-37
2022/03/17 02:29:41;;;;;;;1.98;1.77;;;;;;;;;;4213668;28;20060;-37
2022/03/17 02:31:42;;;;;;;1.77;1.63;;;;;;;;;;4214496;28;20048;-37
2022/03/17 02:33:43;;;;;;;2.28;2.08;;;;;;;;;;4214377;28;20500;-37
2022/03/17 02:35:45;;;;;;;2.25;1.90;;;;;;;;;;4214673;28;20059;-37
2022/03/17 02:37:46;;;;;;;2.30;1.75;;;;;;;;;;4214475;28;20082;-37
2022/03/17 02:39:47;;;;;;;1.67;1.58;;;;;;;;;;4214586;28;20084;-37
2022/03/17 02:41:48;;;;;;;2.10;1.58;;;;;;;;;;4208132;28;20106;-37
2022/03/17 02:43:49;;;;;;;1.80;1.70;;;;;;;;;;4196702;28;20052;-37
2022/03/17 02:45:51;;;;;;;2.53;1.70;;;;;;;;;;4198005;28;20052;-37
2022/03/17 02:47:51;;;;;;;2.17;1.50;;;;;;;;;;4198207;28;20087;-37
2022/03/17 02:49:55;;;;;;;2.53;2.00;;;;;;;;;;4197785;28;20055;-37
2022/03/17 02:51:55;;;;;;;2.42;1.65;;;;;;;;;;4198115;28;20074;-37
2022/03/17 02:53:56;;;;;;;1.75;1.65;;;;;;;;;;4214378;28;20415;-37
2022/03/17 02:55:57;;;;;;;2.53;1.75;;;;;;;;;;4213552;28;20063;-36
2022/03/17 02:57:58;;;;;;;2.10;1.85;;;;;;;;;;4214173;28;20052;-36
2022/03/17 02:59:59;;;;;;;2.78;1.73;;;;;;;;;;4213265;28;20056;-36
2022/03/17 03:02:04;;;;;;;1.85;1.75;;;;;;;;;;4212596;28;20064;-36
2022/03/17 03:04:05;;;;;;;1.88;1.67;;;;;;;;;;4212996;28;20052;-37
2022/03/17 03:06:06;;;;;;;2.10;1.90;;;;;;;;;;4214111;28;20548;-37
2022/03/17 03:08:07;;;;;;;2.35;1.90;;;;;;;;;;4213450;28;20090;-37
2022/03/17 03:10:08;;;;;;;2.13;1.90;;;;;;;;;;4197271;28;20453;-37
2022/03/17 03:12:09;;;;;;;2.67;2.00;;;;;;;;;;4197392;28;20048;-37
2022/03/17 03:14:10;;;;;;;1.80;1.70;;;;;;;;;;4197475;28;20048;-37
2022/03/17 03:16:13;;;;;;;2.38;2.00;;;;;;;;;;4197012;28;20087;-36
2022/03/17 03:18:15;;;;;;;1.92;1.77;;;;;;;;;;4196890;28;20053;-36
2022/03/17 03:20:16;;;;;;;2.13;1.67;;;;;;;;;;4197392;28;20040;-37
2022/03/17 03:22:17;;;;;;;2.28;2.05;;;;;;;;;;4200850;28;20055;-36
2022/03/17 03:24:18;;;;;;;1.77;1.60;;;;;;;;;;4213954;28;20048;-36
2022/03/17 03:26:19;;;;;;;1.85;1.75;;;;;;;;;;4213775;28;20190;-37
2022/03/17 03:28:20;;;;;;;2.20;2.00;;;;;;;;;;4213808;28;20056;-36
2022/03/17 03:30:21;;;;;;;1.75;1.50;;;;;;;;;;4212368;28;20165;-37
2022/03/17 03:32:23;;;;;;;1.70;1.60;;;;;;;;;;4213233;28;20093;-37
2022/03/17 03:34:24;;;;;;;1.80;1.60;;;;;;;;;;4214270;28;20104;-36
2022/03/17 03:38:44;;;;;;;2.08;1.88;;;;;;;;;;4213793;28;20785;-36
2022/03/17 03:40:46;;;;;;;2.00;1.80;;;;;;;;;;4213443;28;20092;-36
2022/03/17 03:42:47;;;;;;;1.98;1.77;;;;;;;;;;4213546;28;20483;-36
2022/03/17 03:44:47;;;;;;;2.25;2.05;;;;;;;;;;4213699;28;20051;-37
2022/03/17 03:46:49;;;;;;;1.80;1.50;;;;;;;;;;4213295;28;20444;-37
2022/03/17 03:48:49;;;;;;;2.45;2.10;;;;;;;;;;4213533;28;20056;-37
2022/03/17 03:50:50;;;;;;;1.88;1.65;;;;;;;;;;4198675;28;20082;-37
2022/03/17 03:52:51;;;;;;;1.67;1.58;;;;;;;;;;4196658;28;20049;-36
2022/03/17 03:54:52;;;;;;;1.80;1.48;;;;;;;;;;4196551;28;20537;-36
2022/03/17 03:56:54;;;;;;;1.90;1.60;;;;;;;;;;4196577;28;20101;-36
2022/03/17 03:58:55;;;;;;;2.30;1.70;;;;;;;;;;4210855;28;20052;-36
2022/03/17 04:00:56;;;;;;;2.10;1.80;;;;;;;;;;4213322;28;20048;-37
2022/03/17 04:02:58;;;;;;;2.25;1.90;;;;;;;;;;4210899;28;20155;-36
2022/03/17 04:04:59;;;;;;;2.08;1.75;;;;;;;;;;4213216;28;20384;-37
2022/03/17 04:07:02;;;;;;;2.10;1.63;;;;;;;;;;4213152;28;20505;-36
2022/03/17 04:09:03;;;;;;;1.75;1.65;;;;;;;;;;4213445;28;20051;-37
2022/03/17 04:11:04;;;;;;;2.53;2.20;;;;;;;;;;4212789;28;20064;-37
2022/03/17 04:13:05;;;;;;;1.77;1.67;;;;;;;;;;4213190;28;20063;-37
2022/03/17 04:15:06;;;;;;;1.52;1.35;;;;;;;;;;4213145;28;20056;-36
2022/03/17 04:17:07;;;;;;;2.00;1.80;;;;;;;;;;4209206;28;20117;-37
2022/03/17 04:19:09;;;;;;;2.03;1.55;;;;;;;;;;4196335;28;20522;-36
2022/03/17 04:21:10;;;;;;;2.20;1.63;;;;;;;;;;4196456;28;20064;-37
2022/03/17 04:23:11;;;;;;;2.03;1.80;;;;;;;;;;4196127;28;20052;-37
2022/03/17 04:25:12;;;;;;;1.92;1.77;;;;;;;;;;4196310;28;20089;-37
2022/03/17 04:27:12;;;;;;;1.92;1.75;;;;;;;;;;4196173;28;20052;-37
2022/03/17 04:29:14;;;;;;;1.90;1.70;;;;;;;;;;4196251;28;20092;-37
2022/03/17 04:31:15;;;;;;;1.83;1.58;;;;;;;;;;4202083;28;20051;-37
2022/03/17 04:33:16;;;;;;;1.88;1.35;;;;;;;;;;4212668;28;20052;-37
2022/03/17 04:35:17;;;;;;;1.58;1.40;;;;;;;;;;4211840;28;20056;-37
2022/03/17 04:37:18;;;;;;;1.73;1.52;;;;;;;;;;4211467;28;20146;-37
2022/03/17 04:39:19;;;;;;;2.08;1.73;;;;;;;;;;4213028;28;20047;-37
2022/03/17 04:41:20;;;;;;;1.52;1.42;;;;;;;;;;4212249;28;20495;-37
2022/03/17 04:43:21;;;;;;;1.60;1.50;;;;;;;;;;4212695;28;20044;-37
2022/03/17 04:45:22;;;;;;;1.63;1.52;;;;;;;;;;4212904;28;20697;-37
2022/03/17 04:47:23;;;;;;;2.05;1.70;;;;;;;;;;4212475;28;20052;-37
2022/03/17 04:49:26;;;;;;;1.83;1.63;;;;;;;;;;4213088;28;20097;-37
2022/03/17 04:51:27;;;;;;;1.70;1.50;;;;;;;;;;4210164;28;20052;-37
2022/03/17 04:53:29;;;;;;;1.88;1.70;;;;;;;;;;4197109;28;20095;-37
2022/03/17 04:55:31;;;;;;;2.17;1.80;;;;;;;;;;4199410;28;20514;-37
2022/03/17 04:57:31;;;;;;;1.90;1.70;;;;;;;;;;4199165;28;20052;-37
2022/03/17 04:59:32;;;;;;;1.85;1.67;;;;;;;;;;4199475;28;20464;-38
2022/03/17 05:01:33;;;;;;;1.92;1.55;;;;;;;;;;4198120;28;20061;-37
2022/03/17 05:03:35;;;;;;;1.65;1.55;;;;;;;;;;4198849;28;20060;-37
2022/03/17 05:05:36;;;;;;;2.47;1.58;;;;;;;;;;4206166;28;20442;-37
2022/03/17 05:07:37;;;;;;;1.73;1.60;;;;;;;;;;4216196;28;20059;-37
2022/03/17 05:09:38;;;;;;;2.00;1.77;;;;;;;;;;4216058;28;20087;-37
2022/03/17 05:11:39;;;;;;;1.80;1.38;;;;;;;;;;4216007;28;20066;-37
2022/03/17 05:13:40;;;;;;;1.58;1.48;;;;;;;;;;4215830;28;20121;-37
2022/03/17 05:15:41;;;;;;;1.90;1.70;;;;;;;;;;4214805;28;20052;-37
2022/03/17 05:17:42;;;;;;;1.73;1.50;;;;;;;;;;4215582;28;20090;-37
2022/03/17 05:19:43;;;;;;;2.05;1.67;;;;;;;;;;4215179;28;20055;-37
2022/03/17 05:21:44;;;;;;;2.03;1.80;;;;;;;;;;4215810;28;20095;-37
2022/03/17 05:23:45;;;;;;;2.10;1.55;;;;;;;;;;4216004;28;20094;-37
2022/03/17 05:25:47;;;;;;;1.50;1.30;;;;;;;;;;4215697;28;20048;-37
2022/03/17 05:27:49;;;;;;;1.63;1.52;;;;;;;;;;4215575;28;20048;-37
2022/03/17 05:29:50;;;;;;;1.55;1.30;;;;;;;;;;4215622;28;20048;-36
2022/03/17 05:31:51;;;;;;;2.08;1.88;;;;;;;;;;4215169;28;20063;-37
2022/03/17 05:33:52;;;;;;;1.80;1.60;;;;;;;;;;4199002;28;20461;-37
2022/03/17 05:35:53;;;;;;;2.10;1.77;;;;;;;;;;4198721;28;20106;-37
2022/03/17 05:37:54;;;;;;;1.90;1.70;;;;;;;;;;4198571;28;20468;-38
2022/03/17 05:39:55;;;;;;;1.70;1.60;;;;;;;;;;4198607;28;20513;-37
2022/03/17 05:41:56;;;;;;;1.90;1.70;;;;;;;;;;4198446;28;20059;-37
2022/03/17 05:43:57;;;;;;;1.60;1.50;;;;;;;;;;4197513;28;20526;-37
2022/03/17 05:45:58;;;;;;;2.10;1.90;;;;;;;;;;4200149;28;20119;-37
2022/03/17 05:47:59;;;;;;;1.63;1.52;;;;;;;;;;4214891;28;20099;-37
2022/03/17 05:50:00;;;;;;;1.77;1.50;;;;;;;;;;4215256;28;20101;-37
2022/03/17 05:52:01;;;;;;;2.17;1.70;;;;;;;;;;4215186;28;20093;-37
2022/03/17 05:54:02;;;;;;;1.90;1.70;;;;;;;;;;4215336;28;20076;-37
2022/03/17 05:56:03;;;;;;;2.03;1.77;;;;;;;;;;4215309;28;20094;-37
2022/03/17 05:58:05;;;;;;;1.50;1.40;;;;;;;;;;4215252;28;20060;-37
2022/03/17 06:00:07;;;;;;;3.50;1.90;;;;;;;;;;4214214;28;20051;-37
2022/03/17 06:02:09;;;;;;;1.50;1.40;;;;;;;;;;4211089;28;20495;-37
2022/03/17 06:04:10;;;;;;;2.15;1.63;;;;;;;;;;4213382;28;20056;-37
2022/03/17 06:06:11;;;;;;;2.53;1.85;;;;;;;;;;4213339;28;20085;-37
2022/03/17 06:08:12;;;;;;;1.90;1.70;;;;;;;;;;4213045;28;20621;-37
2022/03/17 06:10:17;;;;;;;2.63;2.25;;;;;;;;;;4213044;28;20457;-37
2022/03/17 06:12:18;;;;;;;4.45;2.33;;;;;;;;;;4212620;28;20104;-37
2022/03/17 06:14:19;;;;;;;2.40;2.20;;;;;;;;;;4201300;28;20483;-37
2022/03/17 06:16:20;;;;;;;2.53;2.22;;;;;;;;;;4196351;28;20490;-37
2022/03/17 06:18:21;;;;;;;2.88;2.17;;;;;;;;;;4195713;28;20064;-36
2022/03/17 06:20:23;;;;;;;2.88;2.05;;;;;;;;;;4194808;28;20488;-38
2022/03/17 06:22:24;;;;;;;2.90;2.58;;;;;;;;;;4198129;28;20135;-37
2022/03/17 06:24:25;;;;;;;2.92;2.45;;;;;;;;;;4210148;28;20077;-36
2022/03/17 06:26:26;;;;;;;3.40;2.33;;;;;;;;;;4212171;28;20063;-37
2022/03/17 06:28:26;;;;;;;2.85;2.55;;;;;;;;;;4211942;28;20463;-37
2022/03/17 06:30:30;;;;;;;2.92;2.60;;;;;;;;;;4210585;28;20091;-37
2022/03/17 06:32:32;;;;;;;2.88;2.67;;;;;;;;;;4211706;28;20047;-37
2022/03/17 06:34:33;;;;;;;3.20;2.90;;;;;;;;;;4212350;28;20043;-37
2022/03/17 06:36:34;;;;;;;3.40;2.78;;;;;;;;;;4212186;28;20140;-38
2022/03/17 06:38:34;;;;;;;3.08;2.78;;;;;;;;;;4212162;28;20054;-37
2022/03/17 06:40:36;;;;;;;4.50;2.83;;;;;;;;;;4201559;28;20098;-37
2022/03/17 06:42:37;;;;;;;3.38;2.70;;;;;;;;;;4196246;28;20052;-37
2022/03/17 06:44:37;;;;;;;3.20;2.83;;;;;;;;;;4202837;28;20448;-37
2022/03/17 06:46:38;;;;;;;3.35;3.05;;;;;;;;;;4207404;28;20052;-37
2022/03/17 06:48:39;;;;;;;3.53;2.83;;;;;;;;;;4211217;28;20088;-36
2022/03/17 06:50:40;;;;;;;3.30;3.00;;;;;;;;;;4207559;28;20075;-36
2022/03/17 06:52:42;;;;;;;4.05;3.20;;;;;;;;;;4210212;28;20136;-36
2022/03/17 06:54:43;;;;;;;3.50;2.97;;;;;;;;;;4206818;28;20089;-36
2022/03/17 06:56:44;;;;;;;4.32;2.97;;;;;;;;;;4206353;28;20502;-36
2022/03/17 06:58:45;;;;;;;4.07;3.13;;;;;;;;;;4199749;28;20048;-37
2022/03/17 07:00:46;;;;;;;3.28;2.67;;;;;;;;;;4202254;28;20081;-36
2022/03/17 07:02:47;;;;;;;3.35;2.90;;;;;;;;;;4187470;28;20098;-36
2022/03/17 07:04:48;;;;;;;3.53;2.95;;;;;;;;;;4207200;28;20318;-36
2022/03/17 07:06:49;;;;;;;3.28;2.97;;;;;;;;;;4203254;28;20416;-37
2022/03/17 07:08:50;;;;;;;4.07;2.88;;;;;;;;;;4198236;28;20503;-36
2022/03/17 07:10:51;;;;;;;3.70;3.08;;;;;;;;;;4199023;28;20084;-36
2022/03/17 07:12:53;;;;;;;3.13;2.78;;;;;;;;;;4185969;28;20408;-36
2022/03/17 07:14:54;;;;;;;4.00;3.08;;;;;;;;;;4203558;28;20085;-36
2022/03/17 07:16:55;;;;;;;3.05;2.60;;;;;;;;;;4194576;28;20078;-37
2022/03/17 07:18:56;;;;;;;3.25;2.88;;;;;;;;;;4197243;28;20052;-36
2022/03/17 07:20:59;;;;;;;4.00;3.20;;;;;;;;;;4203040;28;20044;-37
2022/03/17 07:23:00;;;;;;;5.78;3.03;;;;;;;;;;4202768;28;20465;-36
2022/03/17 07:25:01;;;;;;;3.97;2.80;;;;;;;;;;4195067;28;20088;-37
2022/03/17 07:27:02;;;;;;;5.28;2.83;;;;;;;;;;4193392;28;20438;-36
2022/03/17 07:29:03;;;;;;;3.22;2.78;;;;;;;;;;4191056;28;20060;-37
2022/03/17 07:31:04;;;;;;;5.07;3.08;;;;;;;;;;4186739;28;20496;-37
2022/03/17 07:33:06;;;;;;;3.35;3.05;;;;;;;;;;4186369;28;20052;-36
2022/03/17 07:35:07;;;;;;;4.35;2.85;;;;;;;;;;4193982;28;20056;-37
2022/03/17 07:37:08;;;;;;;5.88;2.90;;;;;;;;;;4193235;28;20052;-36
2022/03/17 07:39:10;;;;;;;3.17;2.75;;;;;;;;;;4201444;28;20153;-36
2022/03/17 07:41:11;;;;;;;5.30;3.10;;;;;;;;;;4197613;28;20127;-37
2022/03/17 07:43:12;;;;;;;5.57;3.50;;;;;;;;;;4187633;28;20100;-37
2022/03/17 07:45:35;;;;;;;3.10;2.80;;;;;;;;;;4190328;28;20044;-37
2022/03/17 07:47:54;;;;;;;3.53;2.58;;;;;;;;;;4187175;28;20619;-37
2022/03/17 07:49:56;;;;;;;5.32;2.83;;;;;;;;;;4193358;28;20064;-37
2022/03/17 07:51:57;;;;;;;5.55;3.60;;;;;;;;;;4196595;28;20052;-37
2022/03/17 07:53:58;;;;;;;3.80;2.50;;;;;;;;;;4194236;28;20100;-39
2022/03/17 07:55:59;;;;;;;5.55;2.85;;;;;;;;;;4191242;28;22310;-38
2022/03/17 07:58:00;;;;;;;2.88;2.60;;;;;;;;;;4193608;28;20118;-40
2022/03/17 08:00:03;;;;;;;2.85;2.55;;;;;;;;;;4191557;28;20051;-38
2022/03/17 08:02:14;;;;;;;4.38;2.85;;;;;;;;;;4196856;28;20699;-37
2022/03/17 08:04:15;;;;;;;3.45;2.63;;;;;;;;;;4191721;28;20122;-38
2022/03/17 08:06:16;;;;;;;2.90;2.38;;;;;;;;;;4195400;28;20121;-38
2022/03/17 08:08:18;;;;;;;3.58;2.90;;;;;;;;;;4195339;28;20045;-39
2022/03/17 08:10:19;;;;;;;3.65;2.90;;;;;;;;;;4195182;28;20121;-37
2022/03/17 08:12:20;;;;;;;2.95;2.60;;;;;;;;;;4200841;28;20048;-37
2022/03/17 08:14:21;;;;;;;2.67;2.47;;;;;;;;;;4197107;28;20082;-37
2022/03/17 08:16:22;;;;;;;2.63;2.42;;;;;;;;;;4197411;28;20075;-38
2022/03/17 08:18:24;;;;;;;3.35;2.55;;;;;;;;;;4194928;28;20114;-35
2022/03/17 08:20:25;;;;;;;2.97;2.55;;;;;;;;;;4195000;28;20396;-38
2022/03/17 08:22:26;;;;;;;4.20;2.58;;;;;;;;;;4188797;28;20113;-38
2022/03/17 08:24:26;;;;;;;3.50;2.17;;;;;;;;;;4189078;28;20071;-36
2022/03/17 08:26:27;;;;;;;3.15;2.30;;;;;;;;;;4194016;28;20582;-35
2022/03/17 08:28:29;;;;;;;2.78;2.47;;;;;;;;;;4190647;28;20097;-36
2022/03/17 08:30:31;;;;;;;3.80;2.60;;;;;;;;;;4185143;28;20086;-37
2022/03/17 08:32:32;;;;;;;2.75;2.30;;;;;;;;;;4184793;28;20053;-36
2022/03/17 08:34:32;;;;;;;2.30;2.10;;;;;;;;;;4191772;28;20109;-36
2022/03/17 08:36:34;;;;;;;2.85;2.55;;;;;;;;;;4194371;28;20056;-37
2022/03/17 08:38:34;;;;;;;3.40;1.98;;;;;;;;;;4195290;28;20058;-37
2022/03/17 08:40:38;;;;;;;2.42;2.17;;;;;;;;;;4195980;28;20173;-36
2022/03/17 08:42:39;;;;;;;2.92;2.58;;;;;;;;;;4196270;28;21495;-38
2022/03/17 08:44:40;;;;;;;3.65;2.55;;;;;;;;;;4197291;28;20049;-37
2022/03/17 08:49:19;;;;;;;2.95;2.15;;;;;;;;;;4190273;28;20052;-37
2022/03/17 08:51:20;;;;;;;2.47;2.07;;;;;;;;;;4189639;28;20128;-37
2022/03/17 08:53:21;;;;;;;2.22;2.03;;;;;;;;;;4190410;28;20120;-37
2022/03/17 08:55:22;;;;;;;2.33;2.13;;;;;;;;;;4193226;28;20063;-38
2022/03/17 08:57:22;;;;;;;2.40;2.20;;;;;;;;;;4188275;28;20105;-38
2022/03/17 08:59:24;;;;;;;2.50;2.30;;;;;;;;;;4182275;28;20056;-37
2022/03/17 09:01:25;;;;;;;3.85;2.10;;;;;;;;;;4179145;28;22597;-37
2022/03/17 09:03:29;;;;;;;3.65;1.70;;;;;;;;;;4177073;28;20048;-37
2022/03/17 09:05:32;;;;;;;3.30;1.98;;;;;;;;;;4189393;28;20130;-36
2022/03/17 09:07:33;;;;;;;2.47;2.10;;;;;;;;;;4193882;28;20668;-36
2022/03/17 09:09:36;;;;;;;2.70;2.00;;;;;;;;;;4194166;28;20052;-36
2022/03/17 09:11:37;;;;;;;2.42;2.22;;;;;;;;;;4187673;28;20149;-37
2022/03/17 09:13:39;;;;;;;2.00;1.80;;;;;;;;;;4185021;28;20128;-37
2022/03/17 09:15:40;;;;;;;2.53;1.65;;;;;;;;;;4189033;28;22177;-37
2022/03/17 09:17:42;;;;;;;2.08;1.90;;;;;;;;;;4194047;28;20197;-37
2022/03/17 09:19:43;;;;;;;2.65;2.00;;;;;;;;;;4193442;28;20051;-39
2022/03/17 09:21:43;;;;;;;2.88;2.30;;;;;;;;;;4190738;28;20133;-36
2022/03/17 09:23:44;;;;;;;1.98;1.77;;;;;;;;;;4192320;28;20400;-36
2022/03/17 09:25:45;;;;;;;2.42;2.15;;;;;;;;;;4193156;28;20427;-37
2022/03/17 09:27:46;;;;;;;2.70;1.88;;;;;;;;;;4194020;28;20125;-38
2022/03/17 09:29:47;;;;;;;2.70;2.15;;;;;;;;;;4194747;28;20138;-36
2022/03/17 09:31:49;;;;;;;2.83;1.70;;;;;;;;;;4190087;28;20083;-37
2022/03/17 09:33:50;;;;;;;3.88;1.90;;;;;;;;;;4178098;28;22415;-38
2022/03/17 09:35:51;;;;;;;3.55;2.08;;;;;;;;;;4183094;28;20052;-37
2022/03/17 09:37:53;;;;;;;1.70;1.58;;;;;;;;;;4193703;28;20073;-38
2022/03/17 09:39:54;;;;;;;4.00;1.52;;;;;;;;;;4194887;28;20056;-37
2022/03/17 09:41:55;;;;;;;2.90;2.00;;;;;;;;;;4195475;28;20052;-37
2022/03/17 09:43:55;;;;;;;2.70;2.03;;;;;;;;;;4195704;28;20434;-38
2022/03/17 09:45:58;;;;;;;2.58;2.15;;;;;;;;;;4192750;28;20058;-40
2022/03/17 09:47:59;;;;;;;5.53;1.75;;;;;;;;;;4191204;28;20052;-38
2022/03/17 09:50:00;;;;;;;2.80;2.00;;;;;;;;;;4194148;28;20100;-38
2022/03/17 09:52:05;;;;;;;2.45;2.03;;;;;;;;;;4178942;28;20636;-37
2022/03/17 09:54:06;;;;;;;3.33;1.90;;;;;;;;;;4191919;28;20105;-38
2022/03/17 09:56:07;;;;;;;3.38;1.80;;;;;;;;;;4192075;28;20435;-38
2022/03/17 09:58:07;;;;;;;3.45;1.85;;;;;;;;;;4190559;28;20502;-38
2022/03/17 10:00:12;;;;;;;3.28;1.95;;;;;;;;;;4188642;28;20130;-38
2022/03/17 10:02:17;;;;;;;3.28;1.70;;;;;;;;;;4198720;28;20052;-38
2022/03/17 10:04:18;;;;;;;2.10;1.45;;;;;;;;;;4192848;28;20056;-38
2022/03/17 10:06:19;;;;;;;3.30;1.70;;;;;;;;;;4192008;28;20660;-37
2022/03/17 10:08:21;;;;;;;2.00;1.80;;;;;;;;;;4191245;28;20101;-37
2022/03/17 10:10:34;;;;;;;3.90;1.95;;;;;;;;;;4191708;28;20062;-37
2022/03/17 10:12:35;;;;;;;4.25;1.85;;;;;;;;;;4195851;28;21082;-37
2022/03/17 10:14:36;;;;;;;3.08;1.70;;;;;;;;;;4201997;28;20621;-37
2022/03/17 10:16:37;;;;;;;5.38;2.15;;;;;;;;;;4190544;28;20138;-37
2022/03/17 10:18:39;;;;;;;2.20;1.83;;;;;;;;;;4192661;28;20106;-37
2022/03/17 10:20:39;;;;;;;3.08;2.13;;;;;;;;;;4196732;28;20106;-40
2022/03/17 10:22:48;;;;;;;2.10;1.90;;;;;;;;;;4198288;28;20048;-36
2022/03/17 10:24:50;;;;;;;4.20;1.98;;;;;;;;;;4195250;28;20142;-37
2022/03/17 10:26:51;;;;;;;2.22;1.85;;;;;;;;;;4196572;28;20051;-37
2022/03/17 10:28:52;;;;;;;2.60;1.90;;;;;;;;;;4194767;28;20052;-41
2022/03/17 10:31:03;;;;;;;2.88;1.65;;;;;;;;;;4199502;28;20070;-37
2022/03/17 10:33:18;;;;;;;3.10;2.55;;;;;;;;;;4192880;28;20045;-40
2022/03/17 10:35:26;;;;;;;2.20;1.80;;;;;;;;;;4199126;28;20059;-39
2022/03/17 10:37:30;;;;;;;2.80;1.80;;;;;;;;;;4198231;28;20093;-39
2022/03/17 10:39:42;;;;;;;2.95;1.80;;;;;;;;;;4196842;28;22030;-39
2022/03/17 10:41:47;;;;;;;2.67;2.13;;;;;;;;;;4198108;28;21614;-37
2022/03/17 10:43:57;;;;;;;2.25;1.85;;;;;;;;;;4198505;28;20059;-38
2022/03/17 10:46:11;;;;;;;2.50;2.10;;;;;;;;;;4201571;28;20051;-40
2022/03/17 10:48:12;;;;;;;2.60;1.80;;;;;;;;;;4204176;28;20115;-37
2022/03/17 10:50:18;;;;;;;3.03;2.38;;;;;;;;;;4199860;28;20093;-38
2022/03/17 10:52:19;;;;;;;4.13;1.90;;;;;;;;;;4196598;28;20151;-39
2022/03/17 10:54:20;;;;;;;2.95;2.20;;;;;;;;;;4196270;28;20078;-37
2022/03/17 10:56:22;;;;;;;1.88;1.70;;;;;;;;;;4196382;28;20499;-40
2022/03/17 10:58:24;;;;;;;1.80;1.63;;;;;;;;;;4204900;28;20056;-38
2022/03/17 11:00:27;;;;;;;2.28;2.08;;;;;;;;;;4201304;28;20129;-39
2022/03/17 11:02:28;;;;;;;2.30;1.77;;;;;;;;;;4192195;28;20055;-38
2022/03/17 11:04:29;;;;;;;2.47;2.10;;;;;;;;;;4200477;28;20052;-39
2022/03/17 11:06:31;;;;;;;2.45;2.13;;;;;;;;;;4198857;28;20180;-41
2022/03/17 11:08:32;;;;;;;3.13;2.22;;;;;;;;;;4197571;28;20056;-39
2022/03/17 11:10:33;;;;;;;2.92;2.10;;;;;;;;;;4196455;28;20466;-40
2022/03/17 11:12:34;;;;;;;2.08;1.77;;;;;;;;;;4195398;28;20062;-39
2022/03/17 11:14:45;;;;;;;2.40;2.10;;;;;;;;;;4191327;28;20060;-38
2022/03/17 11:16:50;;;;;;;2.25;2.05;;;;;;;;;;4183770;28;20048;-40
2022/03/17 11:18:53;;;;;;;2.55;2.10;;;;;;;;;;4194357;28;20510;-41
2022/03/17 11:21:12;;;;;;;2.25;1.75;;;;;;;;;;4186266;28;20270;-38
2022/03/17 11:23:21;;;;;;;2.80;2.05;;;;;;;;;;4187654;28;20455;-39
2022/03/17 11:25:25;;;;;;;2.20;1.90;;;;;;;;;;4188760;28;20087;-39
2022/03/17 11:27:27;;;;;;;3.60;1.88;;;;;;;;;;4198113;28;20467;-38
2022/03/17 11:29:37;;;;;;;4.65;1.88;;;;;;;;;;4197143;28;20131;-38
2022/03/17 11:31:54;;;;;;;2.25;1.90;;;;;;;;;;4194073;28;20108;-40
2022/03/17 11:34:02;;;;;;;3.45;2.30;;;;;;;;;;4191239;28;20052;-41
2022/03/17 11:36:09;;;;;;;5.05;2.47;;;;;;;;;;4191659;28;20063;-38
2022/03/17 11:38:17;;;;;;;4.65;2.25;;;;;;;;;;4191278;28;20052;-38
2022/03/17 11:40:19;;;;;;;3.05;2.45;;;;;;;;;;4183144;28;20075;-38
2022/03/17 11:42:30;;;;;;;2.70;2.33;;;;;;;;;;4196715;28;22298;-39
2022/03/17 11:44:33;;;;;;;3.47;1.50;;;;;;;;;;4188370;28;20403;-37
2022/03/17 11:46:36;;;;;;;3.63;2.35;;;;;;;;;;4193295;28;20133;-37
2022/03/17 11:48:37;;;;;;;2.45;1.90;;;;;;;;;;4193736;27;20135;-37
2022/03/17 11:50:40;;;;;;;3.55;2.08;;;;;;;;;;4193097;28;20831;-38
2022/03/17 11:52:42;;;;;;;3.15;2.40;;;;;;;;;;4192809;28;20055;-38
2022/03/17 11:54:43;;;;;;;3.15;1.88;;;;;;;;;;4197505;28;20104;-38
2022/03/17 11:56:44;;;;;;;2.60;1.77;;;;;;;;;;4190380;28;20173;-38
2022/03/17 11:58:47;;;;;;;3.08;1.85;;;;;;;;;;4195295;28;20052;-38
2022/03/17 12:00:55;;;;;;;2.72;2.15;;;;;;;;;;4191165;28;20051;-38
2022/03/17 12:03:06;;;;;;;2.20;1.77;;;;;;;;;;4186890;28;20097;-37
2022/03/17 12:05:13;;;;;;;2.42;2.00;;;;;;;;;;4191607;28;21294;-37
2022/03/17 12:07:17;;;;;;;3.17;1.73;;;;;;;;;;4192618;28;20113;-37
2022/03/17 12:09:37;;;;;;;2.25;1.77;;;;;;;;;;4188691;28;20060;-37
2022/03/17 12:11:41;;;;;;;2.40;1.98;;;;;;;;;;4192436;28;20066;-37
2022/03/17 12:13:43;;;;;;;1.77;1.50;;;;;;;;;;4187803;28;21275;-37
2022/03/17 12:15:45;;;;;;;3.88;2.10;;;;;;;;;;4194009;28;20068;-37
2022/03/17 12:18:06;;;;;;;2.70;1.90;;;;;;;;;;4187842;28;20041;-39
2022/03/17 12:20:19;;;;;;;2.15;1.70;;;;;;;;;;4191975;28;20060;-37